createdAt,value
2022-08-17T00:02:25.462Z,4.20
2022-08-17T00:04:54.329Z,3.75
2022-08-17T00:07:21.089Z,3.85
2022-08-17T00:09:47.730Z,3.72
2022-08-17T00:12:40.910Z,4.28
2022-08-17T00:15:01.421Z,4.60
2022-08-17T00:17:28.108Z,4.10
2022-08-17T00:19:54.738Z,4.03
2022-08-17T00:22:34.309Z,4.35
2022-08-17T00:25:03.667Z,5.13
2022-08-17T00:27:30.354Z,4.20
2022-08-17T00:29:57.061Z,4.15
2022-08-17T00:33:11.986Z,4.60
2022-08-17T00:35:13.021Z,4.30
2022-08-17T00:37:40.257Z,4.68
2022-08-17T00:40:09.148Z,4.20
2022-08-17T00:42:35.939Z,4.53
2022-08-17T00:45:05.218Z,4.40
2022-08-17T00:47:32.181Z,4.28
2022-08-17T00:49:59.017Z,4.95
2022-08-17T00:52:32.561Z,5.05
2022-08-17T00:54:59.812Z,3.85
2022-08-17T00:57:31.210Z,4.20
2022-08-17T01:00:05.872Z,5.05
2022-08-17T01:02:42.639Z,4.28
2022-08-17T01:05:25.645Z,4.82
2022-08-17T01:07:53.248Z,4.72
2022-08-17T01:10:59.577Z,4.38
2022-08-17T01:13:14.190Z,4.88
2022-08-17T01:15:46.516Z,4.47
2022-08-17T01:18:14.178Z,4.65
2022-08-17T01:20:52.035Z,4.25
2022-08-17T01:23:21.330Z,5.32
2022-08-17T01:26:01.877Z,4.30
2022-08-17T01:28:52.316Z,4.82
2022-08-17T01:31:18.301Z,5.00
2022-08-17T01:33:44.977Z,5.20
2022-08-17T01:36:11.847Z,5.20
2022-08-17T01:38:39.288Z,5.22
2022-08-17T01:41:12.577Z,4.70
2022-08-17T01:44:01.610Z,4.88
2022-08-17T01:46:36.600Z,5.63
2022-08-17T01:49:07.445Z,5.45
2022-08-17T01:51:34.669Z,5.35
2022-08-17T01:54:10.349Z,5.45
2022-08-17T01:56:40.564Z,5.50
2022-08-17T01:59:07.240Z,5.30
2022-08-17T02:01:35.071Z,4.80
2022-08-17T02:04:02.939Z,4.97
2022-08-17T02:06:52.721Z,5.22
2022-08-17T02:09:25.607Z,6.00
2022-08-17T02:11:56.641Z,5.22
2022-08-17T02:14:24.247Z,4.25
2022-08-17T02:16:52.452Z,5.40
2022-08-17T02:19:19.112Z,4.43
2022-08-17T02:21:48.976Z,5.28
2022-08-17T02:24:58.671Z,5.70
2022-08-17T02:27:16.212Z,5.70
2022-08-17T02:29:42.855Z,5.45
2022-08-17T02:32:20.862Z,5.30
2022-08-17T02:34:54.667Z,5.18
2022-08-17T02:37:21.308Z,5.60
2022-08-17T02:39:48.014Z,5.07
2022-08-17T02:42:15.088Z,6.15
2022-08-17T02:44:42.020Z,5.47
2022-08-17T02:47:10.064Z,6.13
2022-08-17T02:49:37.695Z,6.18
2022-08-17T02:52:06.991Z,5.80
2022-08-17T02:54:41.669Z,6.20
2022-08-17T02:57:10.142Z,6.28
2022-08-17T02:59:46.764Z,6.00
2022-08-17T03:02:15.607Z,5.90
2022-08-17T03:04:42.265Z,5.97
2022-08-17T03:07:08.883Z,6.22
2022-08-17T03:09:35.597Z,7.20
2022-08-17T03:12:08.530Z,6.80
2022-08-17T03:14:41.723Z,6.68
2022-08-17T03:17:16.944Z,6.35
2022-08-17T03:19:44.525Z,6.90
2022-08-17T03:22:36.456Z,5.75
2022-08-17T03:24:57.885Z,6.30
2022-08-17T03:27:24.497Z,5.97
2022-08-17T03:29:51.048Z,5.90
2022-08-17T03:32:17.817Z,5.80
2022-08-17T03:34:44.449Z,5.47
2022-08-17T03:37:11.128Z,5.53
2022-08-17T03:39:38.162Z,5.78
2022-08-17T03:42:31.815Z,5.85
2022-08-17T03:45:00.341Z,5.45
2022-08-17T03:47:45.619Z,5.50
2022-08-17T03:50:32.362Z,5.53
2022-08-17T03:53:17.866Z,4.85
2022-08-17T03:56:03.281Z,4.95
2022-08-17T03:58:29.992Z,5.20
2022-08-17T04:00:56.721Z,5.20
2022-08-17T04:03:23.478Z,5.35
2022-08-17T04:05:50.151Z,4.97
2022-08-17T04:08:16.767Z,4.82
2022-08-17T04:10:45.154Z,4.90
2022-08-17T04:13:12.515Z,4.28
2022-08-17T04:15:39.261Z,4.80
2022-08-17T04:18:07.550Z,5.05
2022-08-17T04:20:34.565Z,5.85
2022-08-17T04:23:11.681Z,7.40
2022-08-17T04:25:42.273Z,5.88
2022-08-17T04:28:16.113Z,6.32
2022-08-17T04:30:45.174Z,5.35
2022-08-17T04:33:14.809Z,5.78
2022-08-17T04:35:47.464Z,5.53
2022-08-17T04:38:17.980Z,5.50
2022-08-17T04:41:03.248Z,5.60
2022-08-17T04:43:31.978Z,5.43
2022-08-17T04:46:02.403Z,5.07
2022-08-17T04:48:36.410Z,4.20
2022-08-17T04:51:15.179Z,4.43
2022-08-17T04:53:45.248Z,5.03
2022-08-17T04:56:16.637Z,4.90
2022-08-17T04:58:48.530Z,5.22
2022-08-17T05:04:20.779Z,5.03
2022-08-17T05:06:49.953Z,5.00
2022-08-17T05:09:18.036Z,5.07
2022-08-17T05:11:45.859Z,4.88
2022-08-17T05:14:13.024Z,5.60
2022-08-17T05:16:39.692Z,5.72
2022-08-17T05:19:06.452Z,5.50
2022-08-17T05:21:33.219Z,5.45
2022-08-17T05:24:00.105Z,5.13
2022-08-17T05:26:28.796Z,5.50
2022-08-17T05:28:59.546Z,5.50
2022-08-17T05:31:28.939Z,4.45
2022-08-17T05:33:55.953Z,5.20
2022-08-17T05:36:43.364Z,5.18
2022-08-17T05:39:09.438Z,4.80
2022-08-17T05:41:42.660Z,5.15
2022-08-17T05:44:09.340Z,4.93
2022-08-17T05:46:40.552Z,4.30
2022-08-17T05:49:08.694Z,5.28
2022-08-17T05:52:08.209Z,4.82
2022-08-17T05:54:53.697Z,4.78
2022-08-17T05:57:43.570Z,4.63
2022-08-17T06:00:41.843Z,4.45
2022-08-17T06:03:40.536Z,4.20
2022-08-17T06:06:33.722Z,4.60
2022-08-17T06:09:34.085Z,4.82
2022-08-17T06:12:24.974Z,4.60
2022-08-17T06:15:03.696Z,4.80
2022-08-17T06:17:31.299Z,4.10
2022-08-17T06:20:03.403Z,5.22
2022-08-17T06:22:35.256Z,4.32
2022-08-17T06:25:46.349Z,4.75
2022-08-17T06:28:18.449Z,3.88
2022-08-17T06:31:00.698Z,4.75
2022-08-17T06:33:35.295Z,5.00
2022-08-17T06:36:29.298Z,4.80
2022-08-17T06:39:17.839Z,4.78
2022-08-17T06:42:09.639Z,5.15
2022-08-17T06:45:16.998Z,5.00
2022-08-17T06:47:56.959Z,5.18
2022-08-17T06:50:46.604Z,5.30
2022-08-17T06:53:38.270Z,4.75
2022-08-17T06:56:06.972Z,4.88
2022-08-17T06:58:35.823Z,3.92
2022-08-17T07:01:10.897Z,4.80
2022-08-17T07:03:57.161Z,4.47
2022-08-17T07:06:28.375Z,4.40
2022-08-17T07:09:07.644Z,4.63
2022-08-17T07:11:41.009Z,4.22
2022-08-17T07:14:36.636Z,4.75
2022-08-17T07:17:13.466Z,4.63
2022-08-17T07:19:45.431Z,5.40
2022-08-17T07:25:18.539Z,4.88
2022-08-17T07:27:51.601Z,4.57
2022-08-17T07:30:47.238Z,4.15
2022-08-17T07:33:26.832Z,4.70
2022-08-17T07:35:53.925Z,5.15
2022-08-17T07:38:28.400Z,4.55
2022-08-17T07:40:57.891Z,5.20
2022-08-17T07:43:49.797Z,4.72
2022-08-17T07:46:39.630Z,4.97
2022-08-17T07:49:09.408Z,4.45
2022-08-17T07:51:48.212Z,5.10
2022-08-17T07:54:30.317Z,5.50
2022-08-17T07:59:37.966Z,4.50
2022-08-17T08:02:33.670Z,5.15
2022-08-17T08:05:10.147Z,4.55
2022-08-17T08:07:56.455Z,4.65
2022-08-17T08:10:28.231Z,4.50
2022-08-17T08:13:12.271Z,4.20
2022-08-17T08:15:53.714Z,4.53
2022-08-17T08:18:54.605Z,4.53
2022-08-17T08:23:59.635Z,4.38
2022-08-17T08:26:46.450Z,4.90
2022-08-17T08:29:23.479Z,4.30
2022-08-17T08:32:28.078Z,4.40
2022-08-17T08:35:02.703Z,4.40
2022-08-17T08:38:07.975Z,5.00
2022-08-17T08:41:10.018Z,4.47
2022-08-17T08:43:36.579Z,4.30
2022-08-17T08:46:21.922Z,4.60
2022-08-17T08:49:17.105Z,4.07
2022-08-17T08:52:00.295Z,4.72
2022-08-17T08:54:35.997Z,4.55
2022-08-17T08:57:34.081Z,4.00
2022-08-17T09:00:09.026Z,4.28
2022-08-17T09:02:59.941Z,4.53
2022-08-17T09:05:48.683Z,4.47
2022-08-17T09:08:15.898Z,4.35
2022-08-17T09:12:02.779Z,4.20
2022-08-17T09:14:47.370Z,4.30
2022-08-17T09:17:29.889Z,4.82
2022-08-17T09:20:27.221Z,4.60
2022-08-17T09:23:08.653Z,4.57
2022-08-17T09:25:49.871Z,5.03
2022-08-17T09:28:27.261Z,4.80
2022-08-17T09:31:04.221Z,4.78
2022-08-17T09:33:37.019Z,5.18
2022-08-17T09:36:10.201Z,4.63
2022-08-17T09:38:49.087Z,4.55
2022-08-17T09:41:18.326Z,4.68
2022-08-17T09:43:54.197Z,4.78
2022-08-17T09:46:38.958Z,4.93
2022-08-17T09:49:40.754Z,4.63
2022-08-17T09:52:20.123Z,4.22
2022-08-17T09:54:47.257Z,4.40
2022-08-17T09:57:30.237Z,4.65
2022-08-17T10:00:16.451Z,3.95
2022-08-17T10:03:09.767Z,4.60
2022-08-17T10:05:40.806Z,4.32
2022-08-17T10:08:13.278Z,4.63
2022-08-17T10:10:56.479Z,4.38
2022-08-17T10:14:37.318Z,4.40
2022-08-17T10:17:03.455Z,5.03
2022-08-17T10:19:44.013Z,4.15
2022-08-17T10:22:53.268Z,4.40
2022-08-17T10:25:54.724Z,4.63
2022-08-17T10:28:30.314Z,4.53
2022-08-17T10:31:31.029Z,4.10
2022-08-17T10:34:19.187Z,4.68
2022-08-17T10:36:52.542Z,4.07
2022-08-17T10:39:28.085Z,4.50
2022-08-17T10:42:03.243Z,4.38
2022-08-17T10:45:03.568Z,4.78
2022-08-17T10:47:56.115Z,4.47
2022-08-17T10:50:49.428Z,4.35
2022-08-17T10:56:18.935Z,4.20
2022-08-17T10:58:55.640Z,4.65
2022-08-17T11:01:34.517Z,4.93
2022-08-17T11:04:50.432Z,4.78
2022-08-17T11:07:37.073Z,4.70
2022-08-17T11:10:36.232Z,4.35
2022-08-17T11:13:40.634Z,4.70
2022-08-17T11:16:08.909Z,4.20
2022-08-17T11:18:35.831Z,4.57
2022-08-17T11:21:24.372Z,4.22
2022-08-17T11:24:30.604Z,4.20
2022-08-17T11:27:03.387Z,4.32
2022-08-17T11:29:50.661Z,4.28
2022-08-17T11:32:47.591Z,4.85
2022-08-17T11:35:21.371Z,3.67
2022-08-17T11:38:08.687Z,3.78
2022-08-17T11:41:14.521Z,4.63
2022-08-17T11:43:59.094Z,3.90
2022-08-17T11:47:10.179Z,4.43
2022-08-17T11:49:58.443Z,4.05
2022-08-17T11:52:46.934Z,3.97
2022-08-17T11:55:35.723Z,4.70
2022-08-17T11:58:31.085Z,4.63
2022-08-17T12:01:03.706Z,4.18
2022-08-17T12:03:33.421Z,4.13
2022-08-17T12:06:41.557Z,3.92
2022-08-17T12:09:29.779Z,4.43
2022-08-17T12:12:16.850Z,4.45
2022-08-17T12:15:10.454Z,5.20
2022-08-17T12:17:40.467Z,4.80
2022-08-17T12:20:32.117Z,4.75
2022-08-17T12:23:09.954Z,4.25
2022-08-17T12:25:45.428Z,4.18
2022-08-17T12:28:24.439Z,4.60
2022-08-17T12:30:52.167Z,4.70
2022-08-17T12:33:25.467Z,4.93
2022-08-17T12:36:04.660Z,4.82
2022-08-17T12:38:37.160Z,4.65
2022-08-17T12:41:25.872Z,4.50
2022-08-17T12:44:02.425Z,4.63
2022-08-17T12:46:44.791Z,4.45
2022-08-17T12:49:15.799Z,4.70
2022-08-17T12:51:47.789Z,4.35
2022-08-17T12:54:26.531Z,5.40
2022-08-17T12:56:53.613Z,5.43
2022-08-17T12:59:30.290Z,4.78
2022-08-17T13:01:57.816Z,4.70
2022-08-17T13:04:26.593Z,4.53
2022-08-17T13:06:59.542Z,5.05
2022-08-17T13:09:36.070Z,4.65
2022-08-17T13:12:08.116Z,4.97
2022-08-17T13:14:35.403Z,5.03
2022-08-17T13:17:09.692Z,5.18
2022-08-17T13:19:48.470Z,5.80
2022-08-17T13:22:15.112Z,6.00
2022-08-17T13:24:54.962Z,6.50
2022-08-17T13:27:23.920Z,5.55
2022-08-17T13:29:55.799Z,5.85
2022-08-17T13:32:33.427Z,5.75
2022-08-17T13:35:14.303Z,5.05
2022-08-17T13:37:57.745Z,4.68
2022-08-17T13:40:53.193Z,5.35
2022-08-17T13:43:41.057Z,4.65
2022-08-17T13:46:11.607Z,5.78
2022-08-17T13:48:39.031Z,4.85
2022-08-17T13:51:14.116Z,5.28
2022-08-17T13:53:40.747Z,5.60
2022-08-17T13:56:33.391Z,5.40
2022-08-17T14:01:33.265Z,5.55
2022-08-17T14:04:05.851Z,5.57
2022-08-17T14:06:52.477Z,5.38
2022-08-17T14:09:24.312Z,5.22
2022-08-17T14:11:52.843Z,5.25
2022-08-17T14:14:23.461Z,5.35
2022-08-17T14:16:54.316Z,5.68
2022-08-17T14:19:24.810Z,4.88
2022-08-17T14:21:56.442Z,5.75
2022-08-17T14:24:24.579Z,5.57
2022-08-17T14:26:55.015Z,5.63
2022-08-17T14:29:23.722Z,5.72
2022-08-17T14:31:54.382Z,5.68
2022-08-17T14:34:22.990Z,6.30
2022-08-17T14:36:49.982Z,6.28
2022-08-17T14:39:20.341Z,5.32
2022-08-17T14:41:47.612Z,6.35
2022-08-17T14:44:16.851Z,5.65
2022-08-17T14:46:44.858Z,5.60
2022-08-17T14:49:16.273Z,5.13
2022-08-17T14:51:43.730Z,5.50
2022-08-17T14:54:28.755Z,6.15
2022-08-17T14:57:22.790Z,5.22
2022-08-17T14:59:49.139Z,5.50
2022-08-17T15:02:30.460Z,5.50
2022-08-17T15:05:04.315Z,5.10
2022-08-17T15:07:31.660Z,5.18
2022-08-17T15:10:01.487Z,5.30
2022-08-17T15:12:33.196Z,5.43
2022-08-17T15:15:01.052Z,5.55
2022-08-17T15:17:45.277Z,5.65
2022-08-17T15:20:20.447Z,5.72
2022-08-17T15:22:54.965Z,5.10
2022-08-17T15:25:22.433Z,5.03
2022-08-17T15:27:49.805Z,5.57
2022-08-17T15:30:17.979Z,5.20
2022-08-17T15:32:51.139Z,4.60
2022-08-17T15:35:28.341Z,4.75
2022-08-17T15:37:57.905Z,5.00
2022-08-17T15:40:25.181Z,4.45
2022-08-17T15:42:52.751Z,4.50
2022-08-17T15:45:22.519Z,4.90
2022-08-17T15:47:49.314Z,4.95
2022-08-17T15:50:16.146Z,5.13
2022-08-17T15:52:44.962Z,4.40
2022-08-17T15:55:14.351Z,4.95
2022-08-17T15:57:41.052Z,4.90
2022-08-17T16:00:09.718Z,5.40
2022-08-17T16:03:45.712Z,4.20
2022-08-17T16:05:25.244Z,4.30
2022-08-17T16:07:52.999Z,4.70
2022-08-17T16:10:21.035Z,4.60
2022-08-17T16:12:49.690Z,4.55
2022-08-17T16:15:17.359Z,4.30
2022-08-17T16:17:44.070Z,4.68
2022-08-17T16:20:20.638Z,4.72
2022-08-17T16:22:49.348Z,4.60
2022-08-17T16:25:22.986Z,4.75
2022-08-17T16:28:07.104Z,4.65
2022-08-17T16:30:33.730Z,4.68
2022-08-17T16:33:03.082Z,4.90
2022-08-17T16:35:29.987Z,5.00
2022-08-17T16:37:58.821Z,4.97
2022-08-17T16:40:28.174Z,4.78
2022-08-17T16:42:55.485Z,5.47
2022-08-17T16:45:27.558Z,5.03
2022-08-17T16:47:54.995Z,5.28
2022-08-17T16:50:23.739Z,4.47
2022-08-17T17:16:29.294Z,7.32
2022-08-17T17:19:17.945Z,6.43
2022-08-17T17:22:33.054Z,6.93
2022-08-17T17:25:53.848Z,6.75
2022-08-17T17:28:50.309Z,7.75
2022-08-17T17:31:20.478Z,8.20
2022-08-17T17:33:52.541Z,8.10
2022-08-17T17:36:40.263Z,7.53
2022-08-17T17:39:14.157Z,6.07
2022-08-17T17:41:58.669Z,7.63
2022-08-17T17:44:30.208Z,7.55
2022-08-17T17:47:00.967Z,6.82
2022-08-17T17:49:34.166Z,5.60
2022-08-17T17:52:13.176Z,5.18
2022-08-17T17:55:04.412Z,5.85
2022-08-17T17:58:02.431Z,5.68
2022-08-17T18:00:44.355Z,5.82
2022-08-17T18:03:36.026Z,5.85
2022-08-17T18:06:05.518Z,5.38
2022-08-17T18:08:49.564Z,4.80
2022-08-17T18:11:53.965Z,4.90
2022-08-17T18:14:44.176Z,4.38
2022-08-17T18:17:10.890Z,4.50
2022-08-17T18:19:39.892Z,4.13
2022-08-17T18:22:14.454Z,3.95
2022-08-17T18:24:45.281Z,4.20
2022-08-17T18:27:31.460Z,3.75
2022-08-17T18:30:22.454Z,3.70
2022-08-17T18:32:49.823Z,4.18
2022-08-17T18:35:19.540Z,3.92
2022-08-17T18:37:55.951Z,4.20
2022-08-17T18:40:30.882Z,4.03
2022-08-17T18:43:13.727Z,3.55
2022-08-17T18:45:52.187Z,3.53
2022-08-17T18:48:33.403Z,4.03
2022-08-17T18:51:42.141Z,3.50
2022-08-17T18:54:13.067Z,3.97
2022-08-17T18:56:59.779Z,3.63
2022-08-17T18:59:33.748Z,3.90
2022-08-17T19:02:20.572Z,3.95
2022-08-17T19:05:13.597Z,3.92
2022-08-17T19:07:46.709Z,3.50
2022-08-17T19:10:21.793Z,3.30
2022-08-17T19:13:00.466Z,3.72
2022-08-17T19:15:35.254Z,3.50
2022-08-17T19:18:14.721Z,4.22
2022-08-17T19:20:49.889Z,3.72
2022-08-17T19:23:54.003Z,3.42
2022-08-17T19:26:53.513Z,3.20
2022-08-17T19:29:25.619Z,3.28
2022-08-17T19:31:55.827Z,3.38
2022-08-17T19:34:34.108Z,3.30
2022-08-17T19:37:10.448Z,2.90
2022-08-17T19:39:55.990Z,3.20
2022-08-17T19:42:26.803Z,2.80
2022-08-17T19:45:11.896Z,3.17
2022-08-17T19:48:02.829Z,3.20
2022-08-17T19:51:04.167Z,3.00
2022-08-17T19:54:01.516Z,3.00
2022-08-17T19:56:37.545Z,3.00
2022-08-17T19:59:23.611Z,2.80
2022-08-17T20:02:05.164Z,3.40
2022-08-17T20:04:42.305Z,3.13
2022-08-17T20:07:17.329Z,2.80
2022-08-17T20:09:52.866Z,3.10
2022-08-17T20:12:23.862Z,3.08
2022-08-17T20:14:57.218Z,2.97
2022-08-17T20:17:34.991Z,3.35
2022-08-17T20:20:24.220Z,3.00
2022-08-17T20:23:04.783Z,3.05
2022-08-17T20:26:05.422Z,4.10
2022-08-17T20:28:36.051Z,3.40
2022-08-17T20:31:25.442Z,3.42
2022-08-17T20:33:55.082Z,3.70
2022-08-17T20:36:24.274Z,2.80
2022-08-17T20:38:57.131Z,2.95
2022-08-17T20:41:26.938Z,3.25
2022-08-17T20:43:56.477Z,3.40
2022-08-17T20:46:33.037Z,2.80
2022-08-17T20:49:08.676Z,3.10
2022-08-17T20:52:00.633Z,3.40
2022-08-17T20:54:51.118Z,2.80
2022-08-17T20:57:33.198Z,3.17
2022-08-17T21:00:14.811Z,3.53
2022-08-17T21:02:49.618Z,3.50
2022-08-17T21:05:32.604Z,3.50
2022-08-17T21:08:14.372Z,4.07
2022-08-17T21:10:43.853Z,3.35
2022-08-17T21:13:15.558Z,3.10
2022-08-17T21:18:17.268Z,3.08
2022-08-17T21:21:17.594Z,2.80
2022-08-17T21:24:09.357Z,3.40
2022-08-17T21:27:04.605Z,3.83
2022-08-17T21:29:34.016Z,2.78
2022-08-17T21:32:06.265Z,3.17
2022-08-17T21:35:07.968Z,3.17
2022-08-17T21:37:40.753Z,2.97
2022-08-17T21:40:10.530Z,3.28
2022-08-17T21:42:45.074Z,3.53
2022-08-17T21:45:21.141Z,3.42
2022-08-17T21:48:11.501Z,3.47
2022-08-17T21:50:41.627Z,3.25
2022-08-17T21:53:15.059Z,3.17
2022-08-17T21:55:41.763Z,3.38
2022-08-17T21:58:29.400Z,3.28
2022-08-17T22:01:09.518Z,3.40
2022-08-17T22:03:37.548Z,3.22
2022-08-17T22:06:24.827Z,3.63
2022-08-17T22:09:16.572Z,3.28
2022-08-17T22:11:58.514Z,3.50
2022-08-17T22:17:45.027Z,3.30
2022-08-17T22:20:21.789Z,2.88
2022-08-17T22:23:13.068Z,3.33
2022-08-17T22:26:09.544Z,3.17
2022-08-17T22:28:53.178Z,3.40
2022-08-17T22:31:23.582Z,3.05
2022-08-17T22:34:02.354Z,3.35
2022-08-17T22:36:30.246Z,3.58
2022-08-17T22:39:11.135Z,2.95
2022-08-17T22:41:48.040Z,3.13
2022-08-17T22:44:14.952Z,3.60
2022-08-17T22:46:49.396Z,3.55
2022-08-17T22:49:34.247Z,3.42
2022-08-17T22:52:29.222Z,3.35
2022-08-17T22:55:35.714Z,3.10
2022-08-17T22:58:30.511Z,3.33
2022-08-17T23:01:34.860Z,3.47
2022-08-17T23:04:03.196Z,2.95
2022-08-17T23:06:33.916Z,3.72
2022-08-17T23:09:03.843Z,3.10
2022-08-17T23:11:47.860Z,3.47
2022-08-17T23:14:19.222Z,3.40
2022-08-17T23:16:46.937Z,4.00
2022-08-17T23:19:38.951Z,3.70
2022-08-17T23:22:08.748Z,3.75
2022-08-17T23:24:41.815Z,3.50
2022-08-17T23:27:08.436Z,4.07
2022-08-17T23:29:39.259Z,3.75
2022-08-17T23:32:06.957Z,3.95
2022-08-17T23:34:34.127Z,3.67
2022-08-17T23:37:02.280Z,3.60
2022-08-17T23:39:29.390Z,3.80
2022-08-17T23:41:58.962Z,3.45
2022-08-17T23:44:26.265Z,3.47
2022-08-17T23:46:53.928Z,3.45
2022-08-17T23:49:20.668Z,3.53
2022-08-17T23:51:49.026Z,3.13
2022-08-17T23:54:20.886Z,4.32
2022-08-17T23:56:47.622Z,3.90
2022-08-17T23:59:20.056Z,4.25
